sensor_id;sensor_type;location;lat;lon;timestamp;pressure;altitude;pressure_sealevel;temperature;humidity
21011;BME280;10663;42.714;23.274;2023-03-22T00:01:10;94441.75;;;11.22;88.62
21011;BME280;10663;42.714;23.274;2023-03-22T00:02:41;94446.59;;;11.15;88.58
21011;BME280;10663;42.714;23.274;2023-03-22T00:04:12;94450.78;;;11.21;88.34
21011;BME280;10663;42.714;23.274;2023-03-22T00:05:43;94447.34;;;11.21;87.29
21011;BME280;10663;42.714;23.274;2023-03-22T00:07:14;94442.56;;;11.23;87.64
21011;BME280;10663;42.714;23.274;2023-03-22T00:08:49;94444.88;;;11.35;87.04
21011;BME280;10663;42.714;23.274;2023-03-22T00:10:20;94444.88;;;11.35;86.43
21011;BME280;10663;42.714;23.274;2023-03-22T00:11:51;94444.03;;;11.39;86.51
21011;BME280;10663;42.714;23.274;2023-03-22T00:13:22;94445.91;;;11.39;86.75
21011;BME280;10663;42.714;23.274;2023-03-22T00:14:53;94442.44;;;11.43;87.37
21011;BME280;10663;42.714;23.274;2023-03-22T00:16:29;94443.28;;;11.34;86.67
21011;BME280;10663;42.714;23.274;2023-03-22T00:18:00;94442.75;;;11.32;86.49
21011;BME280;10663;42.714;23.274;2023-03-22T00:19:34;94443.25;;;11.39;86.69
21011;BME280;10663;42.714;23.274;2023-03-22T00:21:08;94445.41;;;11.37;87.07
21011;BME280;10663;42.714;23.274;2023-03-22T00:22:40;94444.41;;;11.28;86.68
21011;BME280;10663;42.714;23.274;2023-03-22T00:24:11;94443.50;;;11.42;87.37
21011;BME280;10663;42.714;23.274;2023-03-22T00:25:43;94442.75;;;11.37;86.18
21011;BME280;10663;42.714;23.274;2023-03-22T00:27:14;94442.75;;;11.32;86.51
21011;BME280;10663;42.714;23.274;2023-03-22T00:28:46;94441.59;;;11.48;86.38
21011;BME280;10663;42.714;23.274;2023-03-22T00:30:18;94439.72;;;11.48;86.75
21011;BME280;10663;42.714;23.274;2023-03-22T00:31:50;94435.78;;;11.46;86.44
21011;BME280;10663;42.714;23.274;2023-03-22T00:33:24;94441.56;;;11.53;86.62
21011;BME280;10663;42.714;23.274;2023-03-22T00:34:55;94442.69;;;11.47;86.22
21011;BME280;10663;42.714;23.274;2023-03-22T00:36:26;94441.38;;;11.44;86.53
21011;BME280;10663;42.714;23.274;2023-03-22T00:37:57;94436.28;;;11.48;85.96
21011;BME280;10663;42.714;23.274;2023-03-22T00:39:35;94430.72;;;11.49;86.34
21011;BME280;10663;42.714;23.274;2023-03-22T00:41:17;94428.91;;;11.45;86.33
21011;BME280;10663;42.714;23.274;2023-03-22T00:42:49;94435.28;;;11.44;86.70
21011;BME280;10663;42.714;23.274;2023-03-22T00:44:21;94429.69;;;11.45;87.47
21011;BME280;10663;42.714;23.274;2023-03-22T00:45:52;94433.56;;;11.58;87.06
21011;BME280;10663;42.714;23.274;2023-03-22T00:47:26;94432.88;;;11.42;86.84
21011;BME280;10663;42.714;23.274;2023-03-22T00:48:57;94425.28;;;11.31;87.12
21011;BME280;10663;42.714;23.274;2023-03-22T00:50:29;94425.22;;;11.41;87.39
21011;BME280;10663;42.714;23.274;2023-03-22T00:52:01;94430.03;;;11.34;87.76
21011;BME280;10663;42.714;23.274;2023-03-22T00:53:32;94426.28;;;11.40;88.06
21011;BME280;10663;42.714;23.274;2023-03-22T00:55:05;94418.56;;;11.43;87.69
21011;BME280;10663;42.714;23.274;2023-03-22T00:56:36;94426.53;;;11.43;88.17
21011;BME280;10663;42.714;23.274;2023-03-22T00:58:18;94424.47;;;11.35;88.27
21011;BME280;10663;42.714;23.274;2023-03-22T00:59:50;94428.72;;;11.31;88.48
21011;BME280;10663;42.714;23.274;2023-03-22T01:01:23;94423.41;;;11.31;88.26
21011;BME280;10663;42.714;23.274;2023-03-22T01:02:55;94418.69;;;11.28;87.98
21011;BME280;10663;42.714;23.274;2023-03-22T01:04:29;94423.41;;;11.31;88.04
21011;BME280;10663;42.714;23.274;2023-03-22T01:06:01;94422.03;;;11.00;88.14
21011;BME280;10663;42.714;23.274;2023-03-22T01:07:33;94420.44;;;10.99;89.01
21011;BME280;10663;42.714;23.274;2023-03-22T01:09:07;94417.81;;;10.99;89.35
21011;BME280;10663;42.714;23.274;2023-03-22T01:10:44;94415.41;;;10.97;89.61
21011;BME280;10663;42.714;23.274;2023-03-22T01:12:16;94414.44;;;10.83;89.44
21011;BME280;10663;42.714;23.274;2023-03-22T01:13:48;94416.00;;;10.89;89.53
21011;BME280;10663;42.714;23.274;2023-03-22T01:15:19;94415.56;;;10.67;89.94
21011;BME280;10663;42.714;23.274;2023-03-22T01:16:51;94413.47;;;10.64;90.23
21011;BME280;10663;42.714;23.274;2023-03-22T01:18:24;94410.59;;;10.55;90.59
21011;BME280;10663;42.714;23.274;2023-03-22T01:19:55;94416.94;;;10.54;90.80
21011;BME280;10663;42.714;23.274;2023-03-22T01:21:26;94414.88;;;10.46;91.57
21011;BME280;10663;42.714;23.274;2023-03-22T01:22:57;94419.38;;;10.40;90.94
21011;BME280;10663;42.714;23.274;2023-03-22T01:24:29;94409.81;;;10.49;91.20
21011;BME280;10663;42.714;23.274;2023-03-22T01:26:00;94413.28;;;10.40;92.00
21011;BME280;10663;42.714;23.274;2023-03-22T01:27:31;94404.34;;;10.26;92.40
21011;BME280;10663;42.714;23.274;2023-03-22T01:29:02;94409.34;;;10.37;92.19
21011;BME280;10663;42.714;23.274;2023-03-22T01:30:33;94410.66;;;10.35;92.56
21011;BME280;10663;42.714;23.274;2023-03-22T01:32:07;94406.94;;;10.41;92.20
21011;BME280;10663;42.714;23.274;2023-03-22T01:33:38;94399.56;;;10.38;92.01
21011;BME280;10663;42.714;23.274;2023-03-22T01:35:09;94400.31;;;10.38;92.25
21011;BME280;10663;42.714;23.274;2023-03-22T01:36:42;94402.97;;;10.43;92.53
21011;BME280;10663;42.714;23.274;2023-03-22T01:38:13;94406.16;;;10.35;93.06
21011;BME280;10663;42.714;23.274;2023-03-22T01:39:59;94409.03;;;10.39;92.91
21011;BME280;10663;42.714;23.274;2023-03-22T01:41:31;94404.00;;;10.42;92.83
21011;BME280;10663;42.714;23.274;2023-03-22T01:43:14;94397.72;;;10.28;93.21
21011;BME280;10663;42.714;23.274;2023-03-22T01:46:48;94400.38;;;10.23;94.12
21011;BME280;10663;42.714;23.274;2023-03-22T01:48:30;94395.34;;;10.27;94.48
21011;BME280;10663;42.714;23.274;2023-03-22T01:50:06;94395.31;;;10.32;93.39
21011;BME280;10663;42.714;23.274;2023-03-22T01:51:38;94391.31;;;10.44;94.01
21011;BME280;10663;42.714;23.274;2023-03-22T01:53:19;94396.09;;;10.37;93.44
21011;BME280;10663;42.714;23.274;2023-03-22T01:54:53;94389.72;;;10.38;93.46
21011;BME280;10663;42.714;23.274;2023-03-22T01:56:40;94393.97;;;10.39;93.70
21011;BME280;10663;42.714;23.274;2023-03-22T01:58:19;94396.63;;;10.29;93.69
21011;BME280;10663;42.714;23.274;2023-03-22T01:59:53;94393.50;;;10.27;93.49
21011;BME280;10663;42.714;23.274;2023-03-22T02:01:44;94402.75;;;10.14;93.85
21011;BME280;10663;42.714;23.274;2023-03-22T02:03:23;94399.31;;;10.14;94.28
21011;BME280;10663;42.714;23.274;2023-03-22T02:04:57;94402.25;;;10.07;94.54
21011;BME280;10663;42.714;23.274;2023-03-22T02:06:32;94404.41;;;9.90;94.79
21011;BME280;10663;42.714;23.274;2023-03-22T02:08:13;94398.06;;;9.91;94.98
21011;BME280;10663;42.714;23.274;2023-03-22T02:10:17;94404.88;;;10.02;95.06
21011;BME280;10663;42.714;23.274;2023-03-22T02:19:12;94401.41;;;10.12;94.38
21011;BME280;10663;42.714;23.274;2023-03-22T02:29:57;94410.47;;;9.91;94.32
21011;BME280;10663;42.714;23.274;2023-03-22T02:35:19;94410.16;;;10.02;94.94
21011;BME280;10663;42.714;23.274;2023-03-22T02:41:05;94418.16;;;9.92;94.70
21011;BME280;10663;42.714;23.274;2023-03-22T02:42:58;94414.44;;;9.88;95.58
21011;BME280;10663;42.714;23.274;2023-03-22T02:45:32;94407.06;;;9.80;95.36
21011;BME280;10663;42.714;23.274;2023-03-22T02:48:26;94414.72;;;9.71;95.32
21011;BME280;10663;42.714;23.274;2023-03-22T02:50:07;94411.25;;;9.86;95.70
21011;BME280;10663;42.714;23.274;2023-03-22T02:51:42;94420.25;;;9.95;95.31
21011;BME280;10663;42.714;23.274;2023-03-22T02:53:19;94420.75;;;10.02;95.21
21011;BME280;10663;42.714;23.274;2023-03-22T03:00:05;94415.72;;;10.16;93.59
21011;BME280;10663;42.714;23.274;2023-03-22T03:01:53;94419.72;;;10.19;93.38
21011;BME280;10663;42.714;23.274;2023-03-22T03:03:27;94421.56;;;10.08;94.07
21011;BME280;10663;42.714;23.274;2023-03-22T03:05:00;94419.16;;;10.11;94.00
21011;BME280;10663;42.714;23.274;2023-03-22T03:06:34;94421.84;;;10.01;94.03
21011;BME280;10663;42.714;23.274;2023-03-22T03:08:11;94427.09;;;10.06;94.00
21011;BME280;10663;42.714;23.274;2023-03-22T03:09:44;94419.19;;;10.01;93.37
21011;BME280;10663;42.714;23.274;2023-03-22T03:11:16;94424.19;;;10.03;94.17
21011;BME280;10663;42.714;23.274;2023-03-22T03:12:48;94425.81;;;9.99;93.52
21011;BME280;10663;42.714;23.274;2023-03-22T03:14:27;94422.59;;;10.02;93.55
21011;BME280;10663;42.714;23.274;2023-03-22T03:15:59;94427.38;;;9.95;93.61
21011;BME280;10663;42.714;23.274;2023-03-22T03:18:10;94426.03;;;10.02;93.57
21011;BME280;10663;42.714;23.274;2023-03-22T03:19:44;94422.13;;;9.90;93.60
21011;BME280;10663;42.714;23.274;2023-03-22T03:25:32;94425.25;;;10.22;92.48
21011;BME280;10663;42.714;23.274;2023-03-22T03:27:24;94424.44;;;10.17;92.00
21011;BME280;10663;42.714;23.274;2023-03-22T03:29:15;94425.75;;;10.14;92.54
21011;BME280;10663;42.714;23.274;2023-03-22T03:31:01;94429.50;;;9.98;92.78
21011;BME280;10663;42.714;23.274;2023-03-22T03:34:49;94428.97;;;10.01;92.67
21011;BME280;10663;42.714;23.274;2023-03-22T03:36:23;94428.97;;;9.86;92.56
21011;BME280;10663;42.714;23.274;2023-03-22T03:38:00;94423.69;;;9.96;93.00
21011;BME280;10663;42.714;23.274;2023-03-22T03:39:37;94430.53;;;10.02;92.91
21011;BME280;10663;42.714;23.274;2023-03-22T03:41:12;94433.47;;;10.05;93.13
21011;BME280;10663;42.714;23.274;2023-03-22T03:42:49;94432.66;;;10.10;92.66
21011;BME280;10663;42.714;23.274;2023-03-22T03:44:21;94435.84;;;10.07;92.57
21011;BME280;10663;42.714;23.274;2023-03-22T03:45:54;94429.22;;;10.04;92.38
21011;BME280;10663;42.714;23.274;2023-03-22T03:47:27;94433.19;;;10.07;92.57
21011;BME280;10663;42.714;23.274;2023-03-22T03:48:58;94435.31;;;10.05;92.88
21011;BME280;10663;42.714;23.274;2023-03-22T03:50:29;94439.78;;;10.14;92.76
21011;BME280;10663;42.714;23.274;2023-03-22T03:52:00;94436.38;;;10.19;92.96
21011;BME280;10663;42.714;23.274;2023-03-22T03:53:33;94434.78;;;10.28;93.04
21011;BME280;10663;42.714;23.274;2023-03-22T03:55:05;94440.06;;;10.08;92.10
21011;BME280;10663;42.714;23.274;2023-03-22T03:56:37;94435.81;;;10.12;92.40
21011;BME280;10663;42.714;23.274;2023-03-22T03:58:08;94444.59;;;10.18;92.08
21011;BME280;10663;42.714;23.274;2023-03-22T03:59:39;94446.41;;;10.17;92.04
21011;BME280;10663;42.714;23.274;2023-03-22T04:01:20;94443.75;;;10.17;92.45
21011;BME280;10663;42.714;23.274;2023-03-22T04:02:51;94441.38;;;10.21;91.92
21011;BME280;10663;42.714;23.274;2023-03-22T04:04:51;94445.88;;;10.05;92.53
21011;BME280;10663;42.714;23.274;2023-03-22T04:06:23;94453.28;;;10.03;92.15
21011;BME280;10663;42.714;23.274;2023-03-22T04:07:59;94445.88;;;10.15;92.48
21011;BME280;10663;42.714;23.274;2023-03-22T04:09:32;94450.38;;;10.04;92.41
21011;BME280;10663;42.714;23.274;2023-03-22T04:11:24;94444.81;;;10.11;92.60
21011;BME280;10663;42.714;23.274;2023-03-22T04:12:59;94457.78;;;10.02;93.25
21011;BME280;10663;42.714;23.274;2023-03-22T04:14:30;94449.06;;;10.02;93.50
21011;BME280;10663;42.714;23.274;2023-03-22T04:16:05;94463.63;;;9.99;93.42
21011;BME280;10663;42.714;23.274;2023-03-22T04:17:39;94460.19;;;9.94;93.50
21011;BME280;10663;42.714;23.274;2023-03-22T04:19:12;94455.69;;;9.99;93.63
21011;BME280;10663;42.714;23.274;2023-03-22T04:20:45;94451.75;;;9.92;93.20
21011;BME280;10663;42.714;23.274;2023-03-22T04:22:17;94453.31;;;9.93;93.62
21011;BME280;10663;42.714;23.274;2023-03-22T04:23:48;94457.53;;;9.84;93.78
21011;BME280;10663;42.714;23.274;2023-03-22T04:25:22;94454.38;;;9.82;93.79
21011;BME280;10663;42.714;23.274;2023-03-22T04:27:07;94451.47;;;9.88;94.23
21011;BME280;10663;42.714;23.274;2023-03-22T04:28:51;94446.97;;;9.79;94.08
21011;BME280;10663;42.714;23.274;2023-03-22T04:30:22;94456.75;;;9.78;94.57
21011;BME280;10663;42.714;23.274;2023-03-22T04:32:06;94452.28;;;9.73;94.36
21011;BME280;10663;42.714;23.274;2023-03-22T04:33:44;94453.84;;;9.69;94.55
21011;BME280;10663;42.714;23.274;2023-03-22T04:35:37;94452.25;;;9.68;94.46
21011;BME280;10663;42.714;23.274;2023-03-22T04:37:08;94450.69;;;9.72;94.45
21011;BME280;10663;42.714;23.274;2023-03-22T04:39:09;94456.47;;;9.85;94.15
21011;BME280;10663;42.714;23.274;2023-03-22T04:40:41;94458.09;;;9.81;94.36
21011;BME280;10663;42.714;23.274;2023-03-22T04:42:22;94449.63;;;9.89;94.07
21011;BME280;10663;42.714;23.274;2023-03-22T04:44:05;94460.44;;;10.02;93.67
21011;BME280;10663;42.714;23.274;2023-03-22T04:45:40;94459.63;;;10.02;93.50
21011;BME280;10663;42.714;23.274;2023-03-22T04:47:35;94456.47;;;10.10;92.96
21011;BME280;10663;42.714;23.274;2023-03-22T04:49:09;94459.09;;;10.15;93.21
21011;BME280;10663;42.714;23.274;2023-03-22T04:50:46;94466.25;;;10.14;92.71
21011;BME280;10663;42.714;23.274;2023-03-22T04:52:17;94467.34;;;10.19;92.35
21011;BME280;10663;42.714;23.274;2023-03-22T04:53:58;94470.75;;;10.14;92.57
21011;BME280;10663;42.714;23.274;2023-03-22T04:55:29;94463.88;;;10.08;92.61
21011;BME280;10663;42.714;23.274;2023-03-22T04:57:00;94464.16;;;10.01;93.12
21011;BME280;10663;42.714;23.274;2023-03-22T04:58:35;94465.47;;;10.09;92.83
21011;BME280;10663;42.714;23.274;2023-03-22T05:00:08;94471.56;;;10.09;93.21
21011;BME280;10663;42.714;23.274;2023-03-22T05:01:40;94468.63;;;10.06;93.11
21011;BME280;10663;42.714;23.274;2023-03-22T05:03:16;94469.69;;;10.15;92.90
21011;BME280;10663;42.714;23.274;2023-03-22T05:04:49;94472.88;;;10.02;92.21
21011;BME280;10663;42.714;23.274;2023-03-22T05:06:37;94472.34;;;10.10;92.54
21011;BME280;10663;42.714;23.274;2023-03-22T05:08:19;94467.84;;;10.26;92.33
21011;BME280;10663;42.714;23.274;2023-03-22T05:09:52;94480.81;;;10.32;92.02
21011;BME280;10663;42.714;23.274;2023-03-22T05:11:23;94482.38;;;10.43;91.13
21011;BME280;10663;42.714;23.274;2023-03-22T05:13:18;94480.75;;;10.53;90.99
21011;BME280;10663;42.714;23.274;2023-03-22T05:14:50;94482.09;;;10.55;90.32
21011;BME280;10663;42.714;23.274;2023-03-22T05:16:26;94486.84;;;10.53;89.86
21011;BME280;10663;42.714;23.274;2023-03-22T05:17:57;94485.22;;;10.57;90.27
21011;BME280;10663;42.714;23.274;2023-03-22T05:19:28;94486.03;;;10.63;89.40
21011;BME280;10663;42.714;23.274;2023-03-22T05:21:00;94487.03;;;10.77;89.65
21011;BME280;10663;42.714;23.274;2023-03-22T05:22:33;94486.97;;;10.92;88.50
21011;BME280;10663;42.714;23.274;2023-03-22T05:24:07;94496.78;;;10.86;87.83
21011;BME280;10663;42.714;23.274;2023-03-22T05:25:38;94498.94;;;10.79;87.81
21011;BME280;10663;42.714;23.274;2023-03-22T05:27:09;94495.00;;;10.72;86.79
21011;BME280;10663;42.714;23.274;2023-03-22T05:28:43;94495.50;;;10.79;87.22
21011;BME280;10663;42.714;23.274;2023-03-22T05:30:20;94497.84;;;10.91;87.20
21011;BME280;10663;42.714;23.274;2023-03-22T05:32:02;94502.31;;;10.95;87.13
21011;BME280;10663;42.714;23.274;2023-03-22T05:33:33;94499.66;;;11.00;86.34
21011;BME280;10663;42.714;23.274;2023-03-22T05:35:06;94501.28;;;10.91;86.21
21011;BME280;10663;42.714;23.274;2023-03-22T05:36:41;94500.72;;;10.94;86.80
21011;BME280;10663;42.714;23.274;2023-03-22T05:38:23;94497.00;;;11.00;86.62
21011;BME280;10663;42.714;23.274;2023-03-22T05:40:00;94502.88;;;10.92;86.08
21011;BME280;10663;42.714;23.274;2023-03-22T05:41:39;94499.09;;;11.03;86.02
21011;BME280;10663;42.714;23.274;2023-03-22T05:43:11;94506.75;;;11.15;85.73
21011;BME280;10663;42.714;23.274;2023-03-22T05:44:46;94496.09;;;11.25;85.73
21011;BME280;10663;42.714;23.274;2023-03-22T05:46:17;94506.13;;;11.33;85.58
21011;BME280;10663;42.714;23.274;2023-03-22T05:48:07;94499.00;;;11.29;85.87
21011;BME280;10663;42.714;23.274;2023-03-22T05:49:39;94505.63;;;11.21;86.20
21011;BME280;10663;42.714;23.274;2023-03-22T05:51:14;94502.22;;;11.15;86.44
21011;BME280;10663;42.714;23.274;2023-03-22T05:52:49;94508.22;;;11.36;86.23
21011;BME280;10663;42.714;23.274;2023-03-22T05:54:38;94511.69;;;11.32;85.68
21011;BME280;10663;42.714;23.274;2023-03-22T05:56:10;94502.41;;;11.29;85.76
21011;BME280;10663;42.714;23.274;2023-03-22T05:57:44;94509.81;;;11.37;85.36
21011;BME280;10663;42.714;23.274;2023-03-22T05:59:17;94510.88;;;11.31;84.87
21011;BME280;10663;42.714;23.274;2023-03-22T06:00:48;94515.88;;;11.43;85.26
21011;BME280;10663;42.714;23.274;2023-03-22T06:02:29;94512.25;;;11.29;83.67
21011;BME280;10663;42.714;23.274;2023-03-22T06:04:01;94517.56;;;11.29;83.93
21011;BME280;10663;42.714;23.274;2023-03-22T06:05:38;94520.47;;;11.27;84.62
21011;BME280;10663;42.714;23.274;2023-03-22T06:07:10;94521.81;;;11.24;84.59
21011;BME280;10663;42.714;23.274;2023-03-22T06:09:07;94521.31;;;11.17;83.84
21011;BME280;10663;42.714;23.274;2023-03-22T06:10:38;94522.09;;;11.18;83.89
21011;BME280;10663;42.714;23.274;2023-03-22T06:12:11;94528.22;;;11.13;82.93
21011;BME280;10663;42.714;23.274;2023-03-22T06:13:43;94531.91;;;11.12;83.80
21011;BME280;10663;42.714;23.274;2023-03-22T06:15:15;94521.84;;;11.14;83.59
21011;BME280;10663;42.714;23.274;2023-03-22T06:17:07;94524.94;;;11.37;83.46
21011;BME280;10663;42.714;23.274;2023-03-22T06:18:38;94520.66;;;11.41;82.58
21011;BME280;10663;42.714;23.274;2023-03-22T06:20:16;94520.16;;;11.34;82.57
21011;BME280;10663;42.714;23.274;2023-03-22T06:21:54;94524.09;;;11.46;82.80
21011;BME280;10663;42.714;23.274;2023-03-22T06:23:27;94524.88;;;11.47;82.51
21011;BME280;10663;42.714;23.274;2023-03-22T06:24:58;94526.97;;;11.50;82.15
21011;BME280;10663;42.714;23.274;2023-03-22T06:26:40;94531.66;;;11.63;82.45
21011;BME280;10663;42.714;23.274;2023-03-22T06:28:11;94533.22;;;11.69;81.16
21011;BME280;10663;42.714;23.274;2023-03-22T06:29:46;94529.16;;;11.87;81.51
21011;BME280;10663;42.714;23.274;2023-03-22T06:31:21;94537.91;;;11.87;80.45
21011;BME280;10663;42.714;23.274;2023-03-22T06:32:59;94537.38;;;11.85;81.30
21011;BME280;10663;42.714;23.274;2023-03-22T06:34:34;94534.63;;;12.01;80.80
21011;BME280;10663;42.714;23.274;2023-03-22T06:36:06;94534.44;;;11.87;80.28
21011;BME280;10663;42.714;23.274;2023-03-22T06:37:50;94532.88;;;12.20;79.91
21011;BME280;10663;42.714;23.274;2023-03-22T06:39:23;94535.41;;;12.35;79.46
21011;BME280;10663;42.714;23.274;2023-03-22T06:40:54;94540.47;;;11.97;79.92
21011;BME280;10663;42.714;23.274;2023-03-22T06:42:25;94541.94;;;12.14;79.23
21011;BME280;10663;42.714;23.274;2023-03-22T06:44:06;94535.91;;;12.08;79.63
21011;BME280;10663;42.714;23.274;2023-03-22T06:46:04;94544.75;;;11.93;79.84
21011;BME280;10663;42.714;23.274;2023-03-22T06:47:44;94545.66;;;11.79;80.14
21011;BME280;10663;42.714;23.274;2023-03-22T06:49:38;94542.03;;;12.04;79.98
21011;BME280;10663;42.714;23.274;2023-03-22T06:51:09;94543.72;;;11.89;79.53
21011;BME280;10663;42.714;23.274;2023-03-22T06:52:41;94551.97;;;11.88;79.56
21011;BME280;10663;42.714;23.274;2023-03-22T06:54:12;94544.28;;;12.20;78.52
21011;BME280;10663;42.714;23.274;2023-03-22T06:55:44;94550.22;;;12.07;78.34
21011;BME280;10663;42.714;23.274;2023-03-22T06:57:21;94548.75;;;11.91;79.55
21011;BME280;10663;42.714;23.274;2023-03-22T06:58:52;94552.28;;;11.81;79.57
21011;BME280;10663;42.714;23.274;2023-03-22T07:00:24;94547.69;;;11.92;78.89
21011;BME280;10663;42.714;23.274;2023-03-22T07:01:55;94558.06;;;11.88;78.65
21011;BME280;10663;42.714;23.274;2023-03-22T07:03:26;94555.94;;;11.85;79.07
21011;BME280;10663;42.714;23.274;2023-03-22T07:05:06;94557.84;;;12.19;78.81
21011;BME280;10663;42.714;23.274;2023-03-22T07:06:37;94557.31;;;12.17;78.64
21011;BME280;10663;42.714;23.274;2023-03-22T07:08:09;94552.34;;;12.10;78.27
21011;BME280;10663;42.714;23.274;2023-03-22T07:09:45;94555.81;;;12.06;78.77
21011;BME280;10663;42.714;23.274;2023-03-22T07:11:16;94554.78;;;12.02;79.19
21011;BME280;10663;42.714;23.274;2023-03-22T07:12:51;94556.56;;;12.11;78.57
21011;BME280;10663;42.714;23.274;2023-03-22T07:14:24;94564.41;;;11.92;78.68
21011;BME280;10663;42.714;23.274;2023-03-22T07:16:13;94560.66;;;11.93;78.94
21011;BME280;10663;42.714;23.274;2023-03-22T07:18:00;94565.50;;;12.20;77.85
21011;BME280;10663;42.714;23.274;2023-03-22T07:19:32;94562.03;;;12.25;78.28
21011;BME280;10663;42.714;23.274;2023-03-22T07:21:08;94563.25;;;12.04;79.09
21011;BME280;10663;42.714;23.274;2023-03-22T07:22:41;94577.44;;;11.89;79.15
21011;BME280;10663;42.714;23.274;2023-03-22T07:24:12;94576.53;;;12.04;79.03
21011;BME280;10663;42.714;23.274;2023-03-22T07:25:47;94575.38;;;12.20;79.09
21011;BME280;10663;42.714;23.274;2023-03-22T07:27:31;94577.84;;;12.06;79.63
21011;BME280;10663;42.714;23.274;2023-03-22T07:29:03;94576.72;;;12.12;79.50
21011;BME280;10663;42.714;23.274;2023-03-22T07:30:37;94572.66;;;12.25;78.93
21011;BME280;10663;42.714;23.274;2023-03-22T07:32:09;94572.72;;;12.15;78.75
21011;BME280;10663;42.714;23.274;2023-03-22T07:34:02;94580.56;;;12.30;79.87
21011;BME280;10663;42.714;23.274;2023-03-22T07:35:37;94580.69;;;12.20;79.64
21011;BME280;10663;42.714;23.274;2023-03-22T07:37:09;94585.25;;;12.09;79.25
21011;BME280;10663;42.714;23.274;2023-03-22T07:38:40;94584.66;;;11.78;79.62
21011;BME280;10663;42.714;23.274;2023-03-22T07:40:16;94580.69;;;12.15;78.90
21011;BME280;10663;42.714;23.274;2023-03-22T07:41:48;94583.94;;;12.07;79.14
21011;BME280;10663;42.714;23.274;2023-03-22T07:43:27;94590.31;;;12.06;79.50
21011;BME280;10663;42.714;23.274;2023-03-22T07:45:01;94585.00;;;12.06;79.90
21011;BME280;10663;42.714;23.274;2023-03-22T07:46:52;94595.63;;;12.06;79.94
21011;BME280;10663;42.714;23.274;2023-03-22T07:48:30;94591.06;;;12.11;80.17
21011;BME280;10663;42.714;23.274;2023-03-22T07:50:20;94596.16;;;12.08;80.02
21011;BME280;10663;42.714;23.274;2023-03-22T07:51:57;94590.78;;;12.13;78.97
21011;BME280;10663;42.714;23.274;2023-03-22T07:53:28;94584.41;;;12.19;78.15
21011;BME280;10663;42.714;23.274;2023-03-22T07:54:59;94591.06;;;12.11;78.30
21011;BME280;10663;42.714;23.274;2023-03-22T07:56:30;94583.88;;;12.17;78.05
21011;BME280;10663;42.714;23.274;2023-03-22T07:58:01;94597.16;;;12.17;78.82
21011;BME280;10663;42.714;23.274;2023-03-22T07:59:32;94603.19;;;12.22;78.36
21011;BME280;10663;42.714;23.274;2023-03-22T08:01:06;94597.41;;;12.15;78.55
21011;BME280;10663;42.714;23.274;2023-03-22T08:03:00;94595.94;;;11.99;78.07
21011;BME280;10663;42.714;23.274;2023-03-22T08:05:01;94597.22;;;12.07;78.20
21011;BME280;10663;42.714;23.274;2023-03-22T08:06:41;94597.00;;;11.98;77.62
21011;BME280;10663;42.714;23.274;2023-03-22T08:08:14;94599.44;;;11.89;78.56
21011;BME280;10663;42.714;23.274;2023-03-22T08:09:45;94599.44;;;11.89;78.29
21011;BME280;10663;42.714;23.274;2023-03-22T08:11:16;94604.91;;;12.03;78.85
21011;BME280;10663;42.714;23.274;2023-03-22T08:12:47;94601.63;;;11.82;79.88
21011;BME280;10663;42.714;23.274;2023-03-22T08:14:26;94604.28;;;11.77;79.59
21011;BME280;10663;42.714;23.274;2023-03-22T08:15:58;94603.75;;;11.75;80.01
21011;BME280;10663;42.714;23.274;2023-03-22T08:17:29;94607.22;;;11.76;80.55
21011;BME280;10663;42.714;23.274;2023-03-22T08:19:00;94597.94;;;11.73;80.88
21011;BME280;10663;42.714;23.274;2023-03-22T08:20:33;94610.13;;;11.74;81.34
21011;BME280;10663;42.714;23.274;2023-03-22T08:22:11;94602.41;;;11.83;80.95
21011;BME280;10663;42.714;23.274;2023-03-22T08:24:13;94612.53;;;11.66;80.21
21011;BME280;10663;42.714;23.274;2023-03-22T08:26:02;94602.78;;;11.56;79.71
21011;BME280;10663;42.714;23.274;2023-03-22T08:27:35;94614.91;;;11.67;79.22
21011;BME280;10663;42.714;23.274;2023-03-22T08:29:07;94611.75;;;11.65;79.40
21011;BME280;10663;42.714;23.274;2023-03-22T08:30:41;94619.00;;;11.44;79.24
21011;BME280;10663;42.714;23.274;2023-03-22T08:32:15;94615.88;;;11.37;79.74
21011;BME280;10663;42.714;23.274;2023-03-22T08:33:46;94613.72;;;11.44;79.42
21011;BME280;10663;42.714;23.274;2023-03-22T08:35:17;94615.97;;;11.76;79.33
21011;BME280;10663;42.714;23.274;2023-03-22T08:36:48;94620.47;;;11.81;79.25
21011;BME280;10663;42.714;23.274;2023-03-22T08:38:19;94616.69;;;11.87;79.33
21011;BME280;10663;42.714;23.274;2023-03-22T08:39:56;94619.63;;;11.85;79.18
21011;BME280;10663;42.714;23.274;2023-03-22T08:41:37;94623.94;;;11.66;79.42
21011;BME280;10663;42.714;23.274;2023-03-22T08:43:08;94620.25;;;11.62;80.36
21011;BME280;10663;42.714;23.274;2023-03-22T08:44:40;94630.94;;;11.42;81.52
21011;BME280;10663;42.714;23.274;2023-03-22T08:46:11;94629.81;;;11.63;82.10
21011;BME280;10663;42.714;23.274;2023-03-22T08:47:43;94629.28;;;11.61;81.87
21011;BME280;10663;42.714;23.274;2023-03-22T08:49:14;94633.53;;;11.62;81.94
21011;BME280;10663;42.714;23.274;2023-03-22T08:50:51;94630.06;;;11.61;82.42
21011;BME280;10663;42.714;23.274;2023-03-22T08:52:29;94630.66;;;11.48;81.39
21011;BME280;10663;42.714;23.274;2023-03-22T08:54:05;94629.28;;;11.61;81.80
21011;BME280;10663;42.714;23.274;2023-03-22T08:55:55;94628.97;;;11.73;82.60
21011;BME280;10663;42.714;23.274;2023-03-22T08:57:50;94623.19;;;11.60;82.40
21011;BME280;10663;42.714;23.274;2023-03-22T08:59:44;94623.38;;;11.79;82.01
21011;BME280;10663;42.714;23.274;2023-03-22T09:01:30;94621.69;;;11.98;81.94
21011;BME280;10663;42.714;23.274;2023-03-22T09:03:05;94624.44;;;12.22;81.39